sensor_id;sensor_type;location;lat;lon;timestamp;P1;durP1;ratioP1;P2;durP2;ratioP2
10212;SDS011;5150;51.400;6.692;2022-12-07T00:02:20;34.57;;;27.87;;
10212;SDS011;5150;51.400;6.692;2022-12-07T00:05:45;33.38;;;29.77;;
10212;SDS011;5150;51.400;6.692;2022-12-07T00:09:10;34.67;;;29.93;;
10212;SDS011;5150;51.400;6.692;2022-12-07T00:12:34;36.67;;;31.63;;
10212;SDS011;5150;51.400;6.692;2022-12-07T00:15:59;32.83;;;27.98;;
10212;SDS011;5150;51.400;6.692;2022-12-07T00:19:24;34.60;;;29.63;;
10212;SDS011;5150;51.400;6.692;2022-12-07T00:22:48;33.20;;;28.45;;
10212;SDS011;5150;51.400;6.692;2022-12-07T00:26:12;30.40;;;27.10;;
10212;SDS011;5150;51.400;6.692;2022-12-07T00:29:36;31.40;;;27.90;;
10212;SDS011;5150;51.400;6.692;2022-12-07T00:32:59;37.07;;;28.23;;
10212;SDS011;5150;51.400;6.692;2022-12-07T00:36:23;32.60;;;29.08;;
10212;SDS011;5150;51.400;6.692;2022-12-07T00:39:49;32.92;;;29.50;;
10212;SDS011;5150;51.400;6.692;2022-12-07T00:43:12;31.77;;;28.38;;
10212;SDS011;5150;51.400;6.692;2022-12-07T00:46:35;33.45;;;29.50;;
10212;SDS011;5150;51.400;6.692;2022-12-07T00:49:58;32.97;;;29.42;;
10212;SDS011;5150;51.400;6.692;2022-12-07T00:53:22;34.47;;;30.77;;
10212;SDS011;5150;51.400;6.692;2022-12-07T00:56:46;33.77;;;30.23;;
10212;SDS011;5150;51.400;6.692;2022-12-07T01:00:09;38.78;;;32.67;;
10212;SDS011;5150;51.400;6.692;2022-12-07T01:03:33;38.40;;;31.27;;
10212;SDS011;5150;51.400;6.692;2022-12-07T01:06:56;35.97;;;31.02;;
10212;SDS011;5150;51.400;6.692;2022-12-07T01:10:19;35.13;;;30.30;;
10212;SDS011;5150;51.400;6.692;2022-12-07T01:13:44;36.50;;;32.67;;
10212;SDS011;5150;51.400;6.692;2022-12-07T01:17:07;35.80;;;32.03;;
10212;SDS011;5150;51.400;6.692;2022-12-07T01:20:30;32.70;;;28.50;;
10212;SDS011;5150;51.400;6.692;2022-12-07T01:23:53;33.40;;;29.60;;
10212;SDS011;5150;51.400;6.692;2022-12-07T01:27:17;37.37;;;31.43;;
10212;SDS011;5150;51.400;6.692;2022-12-07T01:30:41;35.77;;;31.57;;
10212;SDS011;5150;51.400;6.692;2022-12-07T01:34:04;40.33;;;32.47;;
10212;SDS011;5150;51.400;6.692;2022-12-07T01:37:27;38.40;;;31.67;;
10212;SDS011;5150;51.400;6.692;2022-12-07T01:40:54;40.97;;;32.63;;
10212;SDS011;5150;51.400;6.692;2022-12-07T01:44:19;40.40;;;33.00;;
10212;SDS011;5150;51.400;6.692;2022-12-07T01:47:45;41.90;;;33.53;;
10212;SDS011;5150;51.400;6.692;2022-12-07T01:51:11;45.93;;;35.27;;
10212;SDS011;5150;51.400;6.692;2022-12-07T01:54:36;43.87;;;33.00;;
10212;SDS011;5150;51.400;6.692;2022-12-07T01:57:59;41.07;;;34.73;;
10212;SDS011;5150;51.400;6.692;2022-12-07T02:01:23;43.67;;;32.57;;
10212;SDS011;5150;51.400;6.692;2022-12-07T02:04:47;46.90;;;37.17;;
10212;SDS011;5150;51.400;6.692;2022-12-07T02:08:13;45.73;;;36.37;;
10212;SDS011;5150;51.400;6.692;2022-12-07T02:11:36;47.10;;;35.30;;
10212;SDS011;5150;51.400;6.692;2022-12-07T02:15:00;46.27;;;37.33;;
10212;SDS011;5150;51.400;6.692;2022-12-07T02:18:23;49.10;;;37.87;;
10212;SDS011;5150;51.400;6.692;2022-12-07T02:21:57;48.27;;;38.20;;
10212;SDS011;5150;51.400;6.692;2022-12-07T02:25:30;53.23;;;40.50;;
10212;SDS011;5150;51.400;6.692;2022-12-07T02:29:14;49.57;;;38.80;;
10212;SDS011;5150;51.400;6.692;2022-12-07T02:32:44;50.93;;;38.23;;
10212;SDS011;5150;51.400;6.692;2022-12-07T02:36:14;49.70;;;37.53;;
10212;SDS011;5150;51.400;6.692;2022-12-07T02:39:44;48.97;;;37.27;;
10212;SDS011;5150;51.400;6.692;2022-12-07T02:43:12;47.33;;;36.90;;
10212;SDS011;5150;51.400;6.692;2022-12-07T02:46:42;43.13;;;35.30;;
10212;SDS011;5150;51.400;6.692;2022-12-07T02:50:09;48.93;;;37.47;;
10212;SDS011;5150;51.400;6.692;2022-12-07T02:53:34;47.80;;;35.27;;
10212;SDS011;5150;51.400;6.692;2022-12-07T02:57:00;49.23;;;35.10;;
10212;SDS011;5150;51.400;6.692;2022-12-07T03:00:36;45.67;;;35.77;;
10212;SDS011;5150;51.400;6.692;2022-12-07T03:04:21;50.40;;;36.30;;
10212;SDS011;5150;51.400;6.692;2022-12-07T03:07:56;48.67;;;37.03;;
10212;SDS011;5150;51.400;6.692;2022-12-07T03:11:25;54.07;;;37.83;;
10212;SDS011;5150;51.400;6.692;2022-12-07T03:14:55;53.30;;;38.80;;
10212;SDS011;5150;51.400;6.692;2022-12-07T03:18:25;57.43;;;40.53;;
10212;SDS011;5150;51.400;6.692;2022-12-07T03:21:53;56.60;;;38.03;;
10212;SDS011;5150;51.400;6.692;2022-12-07T03:25:18;50.77;;;38.77;;
10212;SDS011;5150;51.400;6.692;2022-12-07T03:28:44;49.47;;;37.97;;
10212;SDS011;5150;51.400;6.692;2022-12-07T03:32:20;53.40;;;40.17;;
10212;SDS011;5150;51.400;6.692;2022-12-07T03:35:48;55.47;;;37.97;;
10212;SDS011;5150;51.400;6.692;2022-12-07T03:39:19;59.77;;;38.03;;
10212;SDS011;5150;51.400;6.692;2022-12-07T03:42:47;51.77;;;39.60;;
10212;SDS011;5150;51.400;6.692;2022-12-07T03:46:15;55.30;;;40.50;;
10212;SDS011;5150;51.400;6.692;2022-12-07T03:49:43;58.90;;;41.77;;
10212;SDS011;5150;51.400;6.692;2022-12-07T03:53:11;59.23;;;41.47;;
10212;SDS011;5150;51.400;6.692;2022-12-07T03:56:38;60.37;;;41.80;;
10212;SDS011;5150;51.400;6.692;2022-12-07T04:00:03;70.10;;;44.97;;
10212;SDS011;5150;51.400;6.692;2022-12-07T04:03:34;73.73;;;47.20;;
10212;SDS011;5150;51.400;6.692;2022-12-07T04:06:57;69.87;;;42.60;;
10212;SDS011;5150;51.400;6.692;2022-12-07T04:10:20;62.13;;;45.10;;
10212;SDS011;5150;51.400;6.692;2022-12-07T04:13:45;63.40;;;42.77;;
10212;SDS011;5150;51.400;6.692;2022-12-07T04:17:26;62.57;;;43.00;;
10212;SDS011;5150;51.400;6.692;2022-12-07T04:20:49;64.87;;;42.30;;
10212;SDS011;5150;51.400;6.692;2022-12-07T04:24:12;58.97;;;40.10;;
10212;SDS011;5150;51.400;6.692;2022-12-07T04:27:35;60.57;;;42.50;;
10212;SDS011;5150;51.400;6.692;2022-12-07T04:31:00;52.63;;;36.97;;
10212;SDS011;5150;51.400;6.692;2022-12-07T04:34:23;48.07;;;32.80;;
10212;SDS011;5150;51.400;6.692;2022-12-07T04:37:47;52.03;;;35.07;;
10212;SDS011;5150;51.400;6.692;2022-12-07T04:41:09;59.27;;;35.80;;
10212;SDS011;5150;51.400;6.692;2022-12-07T04:44:33;55.97;;;37.93;;
10212;SDS011;5150;51.400;6.692;2022-12-07T04:47:57;65.47;;;39.53;;
10212;SDS011;5150;51.400;6.692;2022-12-07T04:51:21;52.80;;;34.83;;
10212;SDS011;5150;51.400;6.692;2022-12-07T04:54:45;63.40;;;38.70;;
10212;SDS011;5150;51.400;6.692;2022-12-07T04:58:08;51.93;;;35.03;;
10212;SDS011;5150;51.400;6.692;2022-12-07T05:01:31;55.23;;;36.80;;
10212;SDS011;5150;51.400;6.692;2022-12-07T05:04:57;52.10;;;35.57;;
10212;SDS011;5150;51.400;6.692;2022-12-07T05:08:20;61.03;;;38.23;;
10212;SDS011;5150;51.400;6.692;2022-12-07T05:11:43;54.77;;;37.60;;
10212;SDS011;5150;51.400;6.692;2022-12-07T05:15:06;55.67;;;36.80;;
10212;SDS011;5150;51.400;6.692;2022-12-07T05:18:29;50.77;;;35.43;;
10212;SDS011;5150;51.400;6.692;2022-12-07T05:21:53;54.10;;;35.77;;
10212;SDS011;5150;51.400;6.692;2022-12-07T05:25:16;50.83;;;36.03;;
10212;SDS011;5150;51.400;6.692;2022-12-07T05:28:40;52.40;;;36.33;;
10212;SDS011;5150;51.400;6.692;2022-12-07T05:32:03;51.77;;;34.17;;
10212;SDS011;5150;51.400;6.692;2022-12-07T05:35:26;49.57;;;32.40;;
10212;SDS011;5150;51.400;6.692;2022-12-07T05:38:50;52.07;;;34.97;;
10212;SDS011;5150;51.400;6.692;2022-12-07T05:42:13;53.03;;;34.73;;
10212;SDS011;5150;51.400;6.692;2022-12-07T05:45:37;48.23;;;33.33;;
10212;SDS011;5150;51.400;6.692;2022-12-07T05:49:00;48.13;;;32.43;;
10212;SDS011;5150;51.400;6.692;2022-12-07T05:52:24;50.90;;;32.17;;
10212;SDS011;5150;51.400;6.692;2022-12-07T05:55:48;48.13;;;32.73;;
10212;SDS011;5150;51.400;6.692;2022-12-07T05:59:11;55.93;;;35.47;;
10212;SDS011;5150;51.400;6.692;2022-12-07T06:02:48;55.10;;;32.97;;
10212;SDS011;5150;51.400;6.692;2022-12-07T06:06:11;46.43;;;33.10;;
10212;SDS011;5150;51.400;6.692;2022-12-07T06:09:35;47.00;;;31.60;;
10212;SDS011;5150;51.400;6.692;2022-12-07T06:12:59;49.53;;;31.07;;
10212;SDS011;5150;51.400;6.692;2022-12-07T06:16:22;50.57;;;32.83;;
10212;SDS011;5150;51.400;6.692;2022-12-07T06:19:45;42.97;;;31.10;;
10212;SDS011;5150;51.400;6.692;2022-12-07T06:23:08;42.90;;;30.83;;
10212;SDS011;5150;51.400;6.692;2022-12-07T06:26:31;52.07;;;31.37;;
10212;SDS011;5150;51.400;6.692;2022-12-07T06:29:56;42.00;;;30.50;;
10212;SDS011;5150;51.400;6.692;2022-12-07T06:33:19;47.80;;;31.30;;
10212;SDS011;5150;51.400;6.692;2022-12-07T06:36:42;45.07;;;30.90;;
10212;SDS011;5150;51.400;6.692;2022-12-07T06:40:07;50.33;;;32.03;;
10212;SDS011;5150;51.400;6.692;2022-12-07T06:43:31;45.10;;;32.10;;
10212;SDS011;5150;51.400;6.692;2022-12-07T06:46:57;40.97;;;29.63;;
10212;SDS011;5150;51.400;6.692;2022-12-07T06:50:40;48.40;;;32.90;;
10212;SDS011;5150;51.400;6.692;2022-12-07T06:54:03;43.97;;;30.33;;
10212;SDS011;5150;51.400;6.692;2022-12-07T06:57:26;43.97;;;29.73;;
10212;SDS011;5150;51.400;6.692;2022-12-07T07:00:49;49.07;;;31.43;;
10212;SDS011;5150;51.400;6.692;2022-12-07T07:04:14;45.93;;;31.03;;
10212;SDS011;5150;51.400;6.692;2022-12-07T07:07:37;44.07;;;29.87;;
10212;SDS011;5150;51.400;6.692;2022-12-07T07:11:20;39.07;;;26.47;;
10212;SDS011;5150;51.400;6.692;2022-12-07T07:14:43;38.57;;;27.47;;
10212;SDS011;5150;51.400;6.692;2022-12-07T07:18:06;37.00;;;27.47;;
10212;SDS011;5150;51.400;6.692;2022-12-07T07:21:31;37.77;;;28.20;;
10212;SDS011;5150;51.400;6.692;2022-12-07T07:24:54;39.53;;;26.97;;
10212;SDS011;5150;51.400;6.692;2022-12-07T07:28:17;42.83;;;27.17;;
10212;SDS011;5150;51.400;6.692;2022-12-07T07:31:40;33.07;;;26.47;;
10212;SDS011;5150;51.400;6.692;2022-12-07T07:35:03;36.57;;;27.13;;
10212;SDS011;5150;51.400;6.692;2022-12-07T07:38:28;32.53;;;25.47;;
10212;SDS011;5150;51.400;6.692;2022-12-07T07:41:51;33.93;;;23.47;;
10212;SDS011;5150;51.400;6.692;2022-12-07T07:45:20;36.50;;;25.67;;
10212;SDS011;5150;51.400;6.692;2022-12-07T07:48:46;37.40;;;25.13;;
10212;SDS011;5150;51.400;6.692;2022-12-07T07:52:09;34.50;;;25.53;;
10212;SDS011;5150;51.400;6.692;2022-12-07T07:55:33;37.33;;;24.63;;
10212;SDS011;5150;51.400;6.692;2022-12-07T07:58:56;32.60;;;25.27;;
10212;SDS011;5150;51.400;6.692;2022-12-07T08:02:19;36.70;;;26.20;;
10212;SDS011;5150;51.400;6.692;2022-12-07T08:05:43;34.50;;;24.43;;
10212;SDS011;5150;51.400;6.692;2022-12-07T08:09:08;38.00;;;25.97;;
10212;SDS011;5150;51.400;6.692;2022-12-07T08:12:36;33.80;;;24.67;;
10212;SDS011;5150;51.400;6.692;2022-12-07T08:16:19;33.83;;;25.90;;
10212;SDS011;5150;51.400;6.692;2022-12-07T08:19:43;33.43;;;26.07;;
10212;SDS011;5150;51.400;6.692;2022-12-07T08:23:06;38.23;;;27.57;;
10212;SDS011;5150;51.400;6.692;2022-12-07T08:26:30;34.47;;;23.97;;
10212;SDS011;5150;51.400;6.692;2022-12-07T08:29:54;37.90;;;26.80;;
10212;SDS011;5150;51.400;6.692;2022-12-07T08:33:17;53.78;;;33.67;;
10212;SDS011;5150;51.400;6.692;2022-12-07T08:36:43;34.47;;;23.50;;
10212;SDS011;5150;51.400;6.692;2022-12-07T08:40:07;41.83;;;24.77;;
10212;SDS011;5150;51.400;6.692;2022-12-07T08:43:31;38.23;;;26.37;;
10212;SDS011;5150;51.400;6.692;2022-12-07T08:46:58;35.90;;;25.97;;
10212;SDS011;5150;51.400;6.692;2022-12-07T08:50:23;36.90;;;26.77;;
10212;SDS011;5150;51.400;6.692;2022-12-07T08:53:47;42.30;;;26.67;;
10212;SDS011;5150;51.400;6.692;2022-12-07T08:57:11;33.37;;;24.47;;
10212;SDS011;5150;51.400;6.692;2022-12-07T09:00:34;36.10;;;24.67;;
10212;SDS011;5150;51.400;6.692;2022-12-07T09:03:58;29.30;;;22.33;;
10212;SDS011;5150;51.400;6.692;2022-12-07T09:07:22;24.83;;;19.67;;
10212;SDS011;5150;51.400;6.692;2022-12-07T09:10:45;27.67;;;20.70;;
10212;SDS011;5150;51.400;6.692;2022-12-07T09:14:08;25.27;;;20.17;;
10212;SDS011;5150;51.400;6.692;2022-12-07T09:17:32;36.07;;;24.77;;
10212;SDS011;5150;51.400;6.692;2022-12-07T09:20:57;31.43;;;24.13;;
10212;SDS011;5150;51.400;6.692;2022-12-07T09:24:20;23.70;;;18.30;;
10212;SDS011;5150;51.400;6.692;2022-12-07T09:27:43;25.63;;;17.05;;
10212;SDS011;5150;51.400;6.692;2022-12-07T09:31:06;20.70;;;16.08;;
10212;SDS011;5150;51.400;6.692;2022-12-07T09:34:46;20.37;;;14.73;;
10212;SDS011;5150;51.400;6.692;2022-12-07T09:38:11;19.13;;;16.42;;
10212;SDS011;5150;51.400;6.692;2022-12-07T09:41:38;17.37;;;15.63;;
10212;SDS011;5150;51.400;6.692;2022-12-07T09:45:04;26.53;;;19.23;;
10212;SDS011;5150;51.400;6.692;2022-12-07T09:48:29;15.43;;;13.73;;
10212;SDS011;5150;51.400;6.692;2022-12-07T09:51:59;15.05;;;13.45;;
10212;SDS011;5150;51.400;6.692;2022-12-07T09:55:26;13.38;;;11.85;;
10212;SDS011;5150;51.400;6.692;2022-12-07T09:58:51;11.60;;;10.07;;
10212;SDS011;5150;51.400;6.692;2022-12-07T10:02:23;11.82;;;10.70;;
10212;SDS011;5150;51.400;6.692;2022-12-07T10:05:50;10.32;;;9.38;;
10212;SDS011;5150;51.400;6.692;2022-12-07T10:09:20;10.80;;;9.45;;
10212;SDS011;5150;51.400;6.692;2022-12-07T10:12:54;13.32;;;9.80;;
10212;SDS011;5150;51.400;6.692;2022-12-07T10:16:31;12.25;;;8.80;;
10212;SDS011;5150;51.400;6.692;2022-12-07T10:20:14;9.63;;;6.82;;
10212;SDS011;5150;51.400;6.692;2022-12-07T10:23:40;10.95;;;7.78;;
10212;SDS011;5150;51.400;6.692;2022-12-07T10:27:04;7.53;;;6.65;;
10212;SDS011;5150;51.400;6.692;2022-12-07T10:30:29;5.90;;;5.40;;
10212;SDS011;5150;51.400;6.692;2022-12-07T10:33:54;9.32;;;5.97;;
10212;SDS011;5150;51.400;6.692;2022-12-07T10:37:19;7.28;;;6.40;;
10212;SDS011;5150;51.400;6.692;2022-12-07T10:40:46;6.10;;;5.47;;
10212;SDS011;5150;51.400;6.692;2022-12-07T10:44:09;6.65;;;5.35;;
10212;SDS011;5150;51.400;6.692;2022-12-07T10:47:45;10.38;;;5.70;;
10212;SDS011;5150;51.400;6.692;2022-12-07T10:51:15;12.77;;;6.43;;
10212;SDS011;5150;51.400;6.692;2022-12-07T10:54:47;8.18;;;4.80;;
10212;SDS011;5150;51.400;6.692;2022-12-07T10:58:20;4.85;;;4.35;;
10212;SDS011;5150;51.400;6.692;2022-12-07T11:02:14;6.25;;;5.38;;
10212;SDS011;5150;51.400;6.692;2022-12-07T11:05:49;5.22;;;4.43;;
10212;SDS011;5150;51.400;6.692;2022-12-07T11:09:33;5.05;;;4.50;;
10212;SDS011;5150;51.400;6.692;2022-12-07T11:13:32;6.38;;;4.75;;
10212;SDS011;5150;51.400;6.692;2022-12-07T11:17:02;7.28;;;4.47;;
10212;SDS011;5150;51.400;6.692;2022-12-07T11:20:37;5.80;;;4.60;;
10212;SDS011;5150;51.400;6.692;2022-12-07T11:24:08;10.15;;;5.38;;
10212;SDS011;5150;51.400;6.692;2022-12-07T11:27:37;7.35;;;5.03;;
10212;SDS011;5150;51.400;6.692;2022-12-07T11:31:08;6.28;;;4.88;;
10212;SDS011;5150;51.400;6.692;2022-12-07T11:34:39;11.90;;;4.80;;
10212;SDS011;5150;51.400;6.692;2022-12-07T11:38:10;8.75;;;4.93;;
10212;SDS011;5150;51.400;6.692;2022-12-07T11:41:38;6.30;;;4.68;;
10212;SDS011;5150;51.400;6.692;2022-12-07T11:45:10;7.90;;;5.32;;
10212;SDS011;5150;51.400;6.692;2022-12-07T11:48:38;6.85;;;4.20;;
10212;SDS011;5150;51.400;6.692;2022-12-07T11:52:04;9.48;;;5.45;;
10212;SDS011;5150;51.400;6.692;2022-12-07T11:55:39;6.13;;;4.95;;
10212;SDS011;5150;51.400;6.692;2022-12-07T11:59:08;7.93;;;4.97;;
10212;SDS011;5150;51.400;6.692;2022-12-07T12:02:36;7.50;;;5.13;;
10212;SDS011;5150;51.400;6.692;2022-12-07T12:06:06;10.93;;;5.85;;
10212;SDS011;5150;51.400;6.692;2022-12-07T12:09:30;6.75;;;5.13;;
10212;SDS011;5150;51.400;6.692;2022-12-07T12:13:02;8.85;;;5.45;;
10212;SDS011;5150;51.400;6.692;2022-12-07T12:17:12;7.78;;;5.43;;
10212;SDS011;5150;51.400;6.692;2022-12-07T12:20:50;5.57;;;4.50;;
10212;SDS011;5150;51.400;6.692;2022-12-07T12:24:18;5.22;;;4.32;;
10212;SDS011;5150;51.400;6.692;2022-12-07T12:27:45;7.32;;;4.35;;
10212;SDS011;5150;51.400;6.692;2022-12-07T12:31:12;9.05;;;5.32;;
10212;SDS011;5150;51.400;6.692;2022-12-07T12:34:40;11.30;;;7.40;;
10212;SDS011;5150;51.400;6.692;2022-12-07T12:38:27;9.10;;;6.22;;
10212;SDS011;5150;51.400;6.692;2022-12-07T12:41:58;8.43;;;2.65;;
10212;SDS011;5150;51.400;6.692;2022-12-07T12:45:28;10.07;;;3.90;;
10212;SDS011;5150;51.400;6.692;2022-12-07T12:48:52;13.32;;;9.55;;
10212;SDS011;5150;51.400;6.692;2022-12-07T12:52:47;14.70;;;9.35;;
10212;SDS011;5150;51.400;6.692;2022-12-07T12:56:22;17.17;;;11.68;;
10212;SDS011;5150;51.400;6.692;2022-12-07T12:59:57;12.90;;;11.20;;
10212;SDS011;5150;51.400;6.692;2022-12-07T13:03:22;19.02;;;13.18;;
10212;SDS011;5150;51.400;6.692;2022-12-07T13:06:49;13.80;;;10.30;;
10212;SDS011;5150;51.400;6.692;2022-12-07T13:10:21;15.45;;;11.23;;
10212;SDS011;5150;51.400;6.692;2022-12-07T13:13:49;12.27;;;10.00;;
10212;SDS011;5150;51.400;6.692;2022-12-07T13:17:12;9.65;;;8.63;;
10212;SDS011;5150;51.400;6.692;2022-12-07T13:25:07;7.43;;;6.60;;
10212;SDS011;5150;51.400;6.692;2022-12-07T13:28:37;9.50;;;6.65;;
10212;SDS011;5150;51.400;6.692;2022-12-07T13:32:02;9.32;;;5.82;;
10212;SDS011;5150;51.400;6.692;2022-12-07T13:35:29;9.50;;;6.43;;
10212;SDS011;5150;51.400;6.692;2022-12-07T13:38:55;13.88;;;6.00;;
10212;SDS011;5150;51.400;6.692;2022-12-07T13:42:22;6.85;;;5.25;;
10212;SDS011;5150;51.400;6.692;2022-12-07T13:45:56;6.68;;;4.15;;
10212;SDS011;5150;51.400;6.692;2022-12-07T13:49:21;4.00;;;3.60;;
10212;SDS011;5150;51.400;6.692;2022-12-07T13:52:46;5.68;;;4.00;;
10212;SDS011;5150;51.400;6.692;2022-12-07T13:56:12;11.00;;;4.10;;
10212;SDS011;5150;51.400;6.692;2022-12-07T13:59:36;5.07;;;3.10;;
10212;SDS011;5150;51.400;6.692;2022-12-07T14:03:02;6.05;;;3.88;;
10212;SDS011;5150;51.400;6.692;2022-12-07T14:06:27;6.68;;;3.60;;
10212;SDS011;5150;51.400;6.692;2022-12-07T14:09:57;7.18;;;3.20;;
10212;SDS011;5150;51.400;6.692;2022-12-07T14:13:25;3.70;;;2.67;;
10212;SDS011;5150;51.400;6.692;2022-12-07T14:16:56;3.40;;;2.67;;
10212;SDS011;5150;51.400;6.692;2022-12-07T14:20:35;5.97;;;3.67;;
10212;SDS011;5150;51.400;6.692;2022-12-07T14:24:08;8.13;;;3.58;;
10212;SDS011;5150;51.400;6.692;2022-12-07T14:27:47;10.88;;;4.03;;
10212;SDS011;5150;51.400;6.692;2022-12-07T14:31:13;5.78;;;4.32;;
10212;SDS011;5150;51.400;6.692;2022-12-07T14:34:54;5.70;;;4.18;;
10212;SDS011;5150;51.400;6.692;2022-12-07T14:38:27;11.98;;;4.78;;
10212;SDS011;5150;51.400;6.692;2022-12-07T14:41:50;7.03;;;4.75;;
10212;SDS011;5150;51.400;6.692;2022-12-07T14:45:13;6.77;;;5.37;;
10212;SDS011;5150;51.400;6.692;2022-12-07T14:48:38;7.90;;;6.47;;
10212;SDS011;5150;51.400;6.692;2022-12-07T14:52:25;10.77;;;7.17;;
10212;SDS011;5150;51.400;6.692;2022-12-07T14:56:12;8.67;;;5.87;;
10212;SDS011;5150;51.400;6.692;2022-12-07T14:59:35;8.60;;;7.30;;
10212;SDS011;5150;51.400;6.692;2022-12-07T15:03:05;14.47;;;8.47;;
10212;SDS011;5150;51.400;6.692;2022-12-07T15:06:28;15.13;;;8.60;;
10212;SDS011;5150;51.400;6.692;2022-12-07T15:09:51;12.60;;;7.80;;
10212;SDS011;5150;51.400;6.692;2022-12-07T15:13:15;12.30;;;9.77;;
10212;SDS011;5150;51.400;6.692;2022-12-07T15:16:56;17.30;;;9.03;;
10212;SDS011;5150;51.400;6.692;2022-12-07T15:20:39;13.57;;;8.97;;
10212;SDS011;5150;51.400;6.692;2022-12-07T15:24:02;12.73;;;9.20;;
10212;SDS011;5150;51.400;6.692;2022-12-07T15:27:26;11.67;;;9.20;;
10212;SDS011;5150;51.400;6.692;2022-12-07T15:30:53;12.10;;;8.00;;
10212;SDS011;5150;51.400;6.692;2022-12-07T15:34:16;12.20;;;8.03;;
10212;SDS011;5150;51.400;6.692;2022-12-07T15:37:39;11.17;;;7.30;;
10212;SDS011;5150;51.400;6.692;2022-12-07T15:41:02;14.13;;;6.97;;
10212;SDS011;5150;51.400;6.692;2022-12-07T15:44:26;8.47;;;6.70;;
10212;SDS011;5150;51.400;6.692;2022-12-07T15:48:08;11.40;;;5.80;;
10212;SDS011;5150;51.400;6.692;2022-12-07T15:51:48;8.10;;;6.03;;
10212;SDS011;5150;51.400;6.692;2022-12-07T15:55:11;11.33;;;6.50;;
10212;SDS011;5150;51.400;6.692;2022-12-07T15:58:35;9.87;;;6.17;;
10212;SDS011;5150;51.400;6.692;2022-12-07T16:01:58;7.10;;;5.97;;
10212;SDS011;5150;51.400;6.692;2022-12-07T16:05:23;11.57;;;7.10;;
10212;SDS011;5150;51.400;6.692;2022-12-07T16:08:46;8.10;;;6.10;;
10212;SDS011;5150;51.400;6.692;2022-12-07T16:12:10;13.13;;;5.97;;
10212;SDS011;5150;51.400;6.692;2022-12-07T16:15:37;12.37;;;6.37;;
10212;SDS011;5150;51.400;6.692;2022-12-07T16:19:00;9.07;;;5.60;;
10212;SDS011;5150;51.400;6.692;2022-12-07T16:22:25;9.60;;;6.17;;
10212;SDS011;5150;51.400;6.692;2022-12-07T16:25:48;7.73;;;4.77;;
10212;SDS011;5150;51.400;6.692;2022-12-07T16:29:11;7.27;;;5.57;;
10212;SDS011;5150;51.400;6.692;2022-12-07T16:32:41;9.23;;;5.63;;
10212;SDS011;5150;51.400;6.692;2022-12-07T16:36:05;8.10;;;5.53;;
10212;SDS011;5150;51.400;6.692;2022-12-07T16:39:30;6.73;;;5.33;;
10212;SDS011;5150;51.400;6.692;2022-12-07T16:42:54;12.83;;;5.80;;
10212;SDS011;5150;51.400;6.692;2022-12-07T16:46:22;7.77;;;6.90;;
10212;SDS011;5150;51.400;6.692;2022-12-07T16:49:47;7.67;;;6.43;;
10212;SDS011;5150;51.400;6.692;2022-12-07T16:53:11;11.13;;;7.47;;
10212;SDS011;5150;51.400;6.692;2022-12-07T16:56:35;12.97;;;8.67;;
10212;SDS011;5150;51.400;6.692;2022-12-07T16:59:58;11.07;;;10.13;;
10212;SDS011;5150;51.400;6.692;2022-12-07T17:03:21;16.73;;;10.87;;
10212;SDS011;5150;51.400;6.692;2022-12-07T17:06:44;13.85;;;11.45;;
10212;SDS011;5150;51.400;6.692;2022-12-07T17:10:08;21.40;;;11.10;;
10212;SDS011;5150;51.400;6.692;2022-12-07T17:13:33;15.77;;;12.43;;
10212;SDS011;5150;51.400;6.692;2022-12-07T17:17:14;17.03;;;12.60;;
10212;SDS011;5150;51.400;6.692;2022-12-07T17:20:37;18.43;;;12.73;;
10212;SDS011;5150;51.400;6.692;2022-12-07T17:24:01;15.77;;;12.60;;
10212;SDS011;5150;51.400;6.692;2022-12-07T17:27:25;15.60;;;12.60;;
10212;SDS011;5150;51.400;6.692;2022-12-07T17:30:49;21.97;;;15.37;;
10212;SDS011;5150;51.400;6.692;2022-12-07T17:34:13;17.90;;;14.60;;
10212;SDS011;5150;51.400;6.692;2022-12-07T17:37:37;19.40;;;15.27;;
10212;SDS011;5150;51.400;6.692;2022-12-07T17:41:07;18.67;;;16.83;;
10212;SDS011;5150;51.400;6.692;2022-12-07T17:44:31;22.40;;;17.87;;
10212;SDS011;5150;51.400;6.692;2022-12-07T17:47:56;20.97;;;16.47;;
10212;SDS011;5150;51.400;6.692;2022-12-07T17:51:19;22.07;;;18.23;;
10212;SDS011;5150;51.400;6.692;2022-12-07T17:54:59;20.67;;;18.77;;
10212;SDS011;5150;51.400;6.692;2022-12-07T17:58:23;30.77;;;20.43;;
10212;SDS011;5150;51.400;6.692;2022-12-07T18:01:46;23.57;;;18.97;;
10212;SDS011;5150;51.400;6.692;2022-12-07T18:05:11;22.83;;;19.10;;
10212;SDS011;5150;51.400;6.692;2022-12-07T18:08:34;20.27;;;17.03;;
10212;SDS011;5150;51.400;6.692;2022-12-07T18:11:59;18.63;;;16.77;;
10212;SDS011;5150;51.400;6.692;2022-12-07T18:15:22;17.57;;;15.83;;
10212;SDS011;5150;51.400;6.692;2022-12-07T18:18:45;16.80;;;14.90;;
10212;SDS011;5150;51.400;6.692;2022-12-07T18:22:14;17.67;;;14.50;;
10212;SDS011;5150;51.400;6.692;2022-12-07T18:25:37;15.77;;;14.30;;
10212;SDS011;5150;51.400;6.692;2022-12-07T18:29:00;17.87;;;16.07;;
10212;SDS011;5150;51.400;6.692;2022-12-07T18:32:24;16.43;;;13.63;;
10212;SDS011;5150;51.400;6.692;2022-12-07T18:35:49;17.70;;;14.57;;
10212;SDS011;5150;51.400;6.692;2022-12-07T18:39:14;15.17;;;13.63;;
10212;SDS011;5150;51.400;6.692;2022-12-07T18:42:38;18.67;;;15.43;;
10212;SDS011;5150;51.400;6.692;2022-12-07T18:46:01;16.60;;;14.73;;
10212;SDS011;5150;51.400;6.692;2022-12-07T18:49:31;18.90;;;15.20;;
10212;SDS011;5150;51.400;6.692;2022-12-07T18:52:55;15.90;;;14.40;;
10212;SDS011;5150;51.400;6.692;2022-12-07T18:56:21;21.93;;;16.00;;
10212;SDS011;5150;51.400;6.692;2022-12-07T18:59:45;19.03;;;17.00;;
10212;SDS011;5150;51.400;6.692;2022-12-07T19:03:09;19.03;;;16.40;;
10212;SDS011;5150;51.400;6.692;2022-12-07T19:06:32;29.73;;;17.03;;
10212;SDS011;5150;51.400;6.692;2022-12-07T19:09:56;21.30;;;17.93;;
10212;SDS011;5150;51.400;6.692;2022-12-07T19:13:20;21.10;;;18.10;;
10212;SDS011;5150;51.400;6.692;2022-12-07T19:16:44;26.37;;;18.97;;
10212;SDS011;5150;51.400;6.692;2022-12-07T19:20:11;25.93;;;19.23;;
10212;SDS011;5150;51.400;6.692;2022-12-07T19:23:36;24.10;;;20.20;;
10212;SDS011;5150;51.400;6.692;2022-12-07T19:26:59;28.23;;;21.70;;
10212;SDS011;5150;51.400;6.692;2022-12-07T19:30:26;26.83;;;23.60;;
10212;SDS011;5150;51.400;6.692;2022-12-07T19:33:50;29.73;;;23.33;;
10212;SDS011;5150;51.400;6.692;2022-12-07T19:37:13;26.00;;;23.00;;
10212;SDS011;5150;51.400;6.692;2022-12-07T19:40:37;27.77;;;24.50;;
10212;SDS011;5150;51.400;6.692;2022-12-07T19:44:00;32.83;;;24.97;;
10212;SDS011;5150;51.400;6.692;2022-12-07T19:47:26;29.97;;;26.53;;
10212;SDS011;5150;51.400;6.692;2022-12-07T19:50:49;29.00;;;25.73;;
10212;SDS011;5150;51.400;6.692;2022-12-07T19:54:12;28.60;;;25.17;;
10212;SDS011;5150;51.400;6.692;2022-12-07T19:57:36;35.23;;;26.10;;
10212;SDS011;5150;51.400;6.692;2022-12-07T20:01:01;33.53;;;26.37;;
10212;SDS011;5150;51.400;6.692;2022-12-07T20:04:26;31.17;;;26.43;;
10212;SDS011;5150;51.400;6.692;2022-12-07T20:07:50;31.70;;;25.50;;
10212;SDS011;5150;51.400;6.692;2022-12-07T20:11:14;30.73;;;25.23;;
10212;SDS011;5150;51.400;6.692;2022-12-07T20:14:56;30.13;;;25.73;;
10212;SDS011;5150;51.400;6.692;2022-12-07T20:18:20;33.03;;;26.60;;
10212;SDS011;5150;51.400;6.692;2022-12-07T20:21:44;36.27;;;29.57;;
10212;SDS011;5150;51.400;6.692;2022-12-07T20:25:08;37.47;;;32.07;;
10212;SDS011;5150;51.400;6.692;2022-12-07T20:28:31;37.93;;;30.40;;
10212;SDS011;5150;51.400;6.692;2022-12-07T20:31:55;36.77;;;31.90;;
10212;SDS011;5150;51.400;6.692;2022-12-07T20:35:18;43.70;;;33.03;;
10212;SDS011;5150;51.400;6.692;2022-12-07T20:38:43;46.27;;;36.20;;
10212;SDS011;5150;51.400;6.692;2022-12-07T20:42:07;42.13;;;33.17;;